createdAt,value
2017-09-12T00:00:43.878Z,3.03
2017-09-12T00:01:49.883Z,7.05
2017-09-12T00:02:56.961Z,5.47
2017-09-12T00:04:03.821Z,4.40
2017-09-12T00:05:10.173Z,3.53
2017-09-12T00:06:16.788Z,5.15
2017-09-12T00:07:23.498Z,7.40
2017-09-12T00:08:29.951Z,7.00
2017-09-12T00:09:36.634Z,4.32
2017-09-12T00:10:42.947Z,7.62
2017-09-12T00:11:49.247Z,4.70
2017-09-12T00:12:55.458Z,5.68
2017-09-12T00:14:01.835Z,5.07
2017-09-12T00:15:08.388Z,5.95
2017-09-12T00:16:14.868Z,4.78
2017-09-12T00:17:21.420Z,6.50
2017-09-12T00:18:28.449Z,5.22
2017-09-12T00:19:34.613Z,4.37
2017-09-12T00:20:41.620Z,5.60
2017-09-12T00:21:48.307Z,4.18
2017-09-12T00:22:55.111Z,6.90
2017-09-12T00:24:01.424Z,3.55
2017-09-12T00:25:08.300Z,3.60
2017-09-12T00:26:14.885Z,4.20
2017-09-12T00:27:21.402Z,3.65
2017-09-12T00:28:27.467Z,4.75
2017-09-12T00:29:34.759Z,8.40
2017-09-12T00:30:41.361Z,9.10
2017-09-12T00:31:47.377Z,5.03
2017-09-12T00:32:53.988Z,9.98
2017-09-12T00:34:00.415Z,3.35
2017-09-12T00:35:06.929Z,7.60
2017-09-12T00:36:13.737Z,4.45
2017-09-12T00:37:20.314Z,8.38
2017-09-12T00:38:27.117Z,3.80
2017-09-12T00:39:33.389Z,3.50
2017-09-12T00:40:39.801Z,6.90
2017-09-12T00:41:46.922Z,6.60
2017-09-12T00:42:53.326Z,7.10
2017-09-12T00:43:59.535Z,4.12
2017-09-12T00:45:05.453Z,5.78
2017-09-12T00:46:11.899Z,7.60
2017-09-12T00:47:18.294Z,6.18
2017-09-12T00:48:24.861Z,5.22
2017-09-12T00:49:31.062Z,3.85
2017-09-12T00:50:37.435Z,3.90
2017-09-12T00:51:43.881Z,4.37
2017-09-12T00:52:50.416Z,4.40
2017-09-12T00:53:56.974Z,7.78
2017-09-12T00:55:03.351Z,7.20
2017-09-12T00:56:09.750Z,6.62
2017-09-12T00:57:15.240Z,4.32
2017-09-12T00:58:21.274Z,8.40
2017-09-12T00:59:27.392Z,3.97
2017-09-12T01:00:33.334Z,5.82
2017-09-12T01:01:39.683Z,6.20
2017-09-12T01:02:46.277Z,4.20
2017-09-12T01:03:52.452Z,5.07
2017-09-12T01:04:58.106Z,6.50
2017-09-12T01:06:03.954Z,4.85
2017-09-12T01:07:10.403Z,4.87
2017-09-12T01:08:16.781Z,5.07
2017-09-12T01:09:23.140Z,6.32
2017-09-12T01:10:29.567Z,3.20
2017-09-12T01:11:35.515Z,5.57
2017-09-12T01:12:42.012Z,6.25
2017-09-12T01:13:49.114Z,7.47
2017-09-12T01:14:56.394Z,7.80
2017-09-12T01:16:02.763Z,3.62
2017-09-12T01:17:09.330Z,4.30
2017-09-12T01:18:15.663Z,4.90
2017-09-12T01:19:21.334Z,4.28
2017-09-12T01:20:27.762Z,5.03
2017-09-12T01:21:33.338Z,8.32
2017-09-12T01:22:39.515Z,7.00
2017-09-12T01:23:45.448Z,6.53
2017-09-12T01:24:51.363Z,8.30
2017-09-12T01:25:57.799Z,5.43
2017-09-12T01:27:03.880Z,4.10
2017-09-12T01:28:09.958Z,8.73
2017-09-12T01:29:15.794Z,6.65
2017-09-12T01:30:21.692Z,6.05
2017-09-12T01:31:28.393Z,5.57
2017-09-12T01:32:34.234Z,6.87
2017-09-12T01:33:39.662Z,6.25
2017-09-12T01:34:46.198Z,4.72
2017-09-12T01:35:52.528Z,7.87
2017-09-12T01:36:58.789Z,5.55
2017-09-12T01:38:05.581Z,6.87
2017-09-12T01:39:12.083Z,8.05
2017-09-12T01:40:18.280Z,7.03
2017-09-12T01:41:24.707Z,7.72
2017-09-12T01:42:31.122Z,6.30
2017-09-12T01:43:36.877Z,4.35
2017-09-12T01:44:43.012Z,5.20
2017-09-12T01:45:49.394Z,7.10
2017-09-12T01:46:55.875Z,7.72
2017-09-12T01:48:02.113Z,6.32
2017-09-12T01:49:09.114Z,5.22
2017-09-12T01:50:16.225Z,4.97
2017-09-12T01:51:22.488Z,6.03
2017-09-12T01:52:28.965Z,6.12
2017-09-12T01:53:37.816Z,4.25
2017-09-12T01:54:44.541Z,5.78
2017-09-12T01:55:50.741Z,6.47
2017-09-12T01:56:57.151Z,4.37
2017-09-12T01:58:03.714Z,7.10
2017-09-12T01:59:10.583Z,6.25
2017-09-12T02:00:16.819Z,6.37
2017-09-12T02:01:23.416Z,4.78
2017-09-12T02:02:29.747Z,5.45
2017-09-12T02:03:36.142Z,5.60
2017-09-12T02:04:42.415Z,5.57
2017-09-12T02:05:48.890Z,6.57
2017-09-12T02:06:55.121Z,5.45
2017-09-12T02:08:01.269Z,9.10
2017-09-12T02:09:08.416Z,6.07
2017-09-12T02:10:14.752Z,4.45
2017-09-12T02:11:20.968Z,6.97
2017-09-12T02:12:28.253Z,6.03
2017-09-12T02:13:34.388Z,8.00
2017-09-12T02:14:40.796Z,8.35
2017-09-12T02:15:47.641Z,10.57
2017-09-12T02:16:53.915Z,6.82
2017-09-12T02:18:00.225Z,10.45
2017-09-12T02:19:06.358Z,8.07
2017-09-12T02:20:12.557Z,8.10
2017-09-12T02:21:19.001Z,6.30
2017-09-12T02:22:25.396Z,8.23
2017-09-12T02:23:32.732Z,6.62
2017-09-12T02:24:39.302Z,9.65
2017-09-12T02:25:46.085Z,5.75
2017-09-12T02:26:52.407Z,6.20
2017-09-12T02:27:58.820Z,6.12
2017-09-12T02:29:05.440Z,7.40
2017-09-12T02:30:11.955Z,4.43
2017-09-12T02:31:18.094Z,4.85
2017-09-12T02:32:24.548Z,7.95
2017-09-12T02:33:30.743Z,12.93
2017-09-12T02:34:36.991Z,10.70
2017-09-12T02:35:43.164Z,4.20
2017-09-12T02:36:50.432Z,7.37
2017-09-12T02:37:56.420Z,7.35
2017-09-12T02:39:02.751Z,6.53
2017-09-12T02:40:09.317Z,5.40
2017-09-12T02:41:15.669Z,4.80
2017-09-12T02:42:22.108Z,6.57
2017-09-12T02:43:28.881Z,5.35
2017-09-12T02:44:35.128Z,9.90
2017-09-12T02:45:41.850Z,8.50
2017-09-12T02:46:49.082Z,5.72
2017-09-12T02:47:56.053Z,8.70
2017-09-12T02:49:02.343Z,5.87
2017-09-12T02:50:08.740Z,6.12
2017-09-12T02:51:14.999Z,4.80
2017-09-12T02:52:21.454Z,4.75
2017-09-12T02:53:28.000Z,10.27
2017-09-12T02:54:34.589Z,5.35
2017-09-12T02:55:41.092Z,8.02
2017-09-12T02:56:48.040Z,9.15
2017-09-12T02:57:54.656Z,7.95
2017-09-12T02:59:01.080Z,7.28
2017-09-12T03:00:07.587Z,7.50
2017-09-12T03:01:13.884Z,7.20
2017-09-12T03:02:20.267Z,7.93
2017-09-12T03:03:26.538Z,8.18
2017-09-12T03:04:33.020Z,10.57
2017-09-12T03:05:39.263Z,6.15
2017-09-12T03:06:45.971Z,12.35
2017-09-12T03:07:52.480Z,5.57
2017-09-12T03:08:59.003Z,7.20
2017-09-12T03:10:05.325Z,5.35
2017-09-12T03:11:11.889Z,6.57
2017-09-12T03:12:18.313Z,6.07
2017-09-12T03:13:24.542Z,4.20
2017-09-12T03:14:30.976Z,9.55
2017-09-12T03:15:37.683Z,7.18
2017-09-12T03:16:44.753Z,8.77
2017-09-12T03:17:51.464Z,6.87
2017-09-12T03:18:57.988Z,7.55
2017-09-12T03:20:04.598Z,5.00
2017-09-12T03:21:10.992Z,5.75
2017-09-12T03:22:17.203Z,6.97
2017-09-12T03:23:23.599Z,8.02
2017-09-12T03:24:29.928Z,7.25
2017-09-12T03:25:36.321Z,9.45
2017-09-12T03:26:42.571Z,7.65
2017-09-12T03:27:49.259Z,6.55
2017-09-12T03:28:55.490Z,4.57
2017-09-12T03:30:01.897Z,7.12
2017-09-12T03:31:08.105Z,4.53
2017-09-12T03:32:14.737Z,5.93
2017-09-12T03:33:21.139Z,6.25
2017-09-12T03:34:27.573Z,8.95
2017-09-12T03:35:33.958Z,6.32
2017-09-12T03:36:40.997Z,4.45
2017-09-12T03:37:47.900Z,5.97
2017-09-12T03:39:09.229Z,7.28
2017-09-12T03:40:15.692Z,6.90
2017-09-12T03:41:21.984Z,7.37
2017-09-12T03:42:28.416Z,5.80
2017-09-12T03:43:35.139Z,5.12
2017-09-12T03:44:41.655Z,6.43
2017-09-12T03:45:48.493Z,6.55
2017-09-12T03:46:54.991Z,5.68
2017-09-12T03:48:01.307Z,6.50
2017-09-12T03:49:09.882Z,3.45
2017-09-12T03:50:16.711Z,7.72
2017-09-12T03:51:23.055Z,5.10
2017-09-12T03:52:29.507Z,7.68
2017-09-12T03:53:35.840Z,4.40
2017-09-12T03:54:41.924Z,6.97
2017-09-12T03:55:48.358Z,4.32
2017-09-12T03:56:54.622Z,5.53
2017-09-12T03:58:01.926Z,3.28
2017-09-12T03:59:07.575Z,6.45
2017-09-12T04:00:13.387Z,5.50
2017-09-12T04:01:19.013Z,3.83
2017-09-12T04:02:25.494Z,4.07
2017-09-12T04:03:32.495Z,5.32
2017-09-12T04:04:39.948Z,6.55
2017-09-12T04:05:46.626Z,7.40
2017-09-12T04:07:00.465Z,3.22
2017-09-12T04:08:11.809Z,3.62
2017-09-12T04:11:41.192Z,3.75
2017-09-12T04:12:47.609Z,3.75
2017-09-12T04:13:54.840Z,4.03
2017-09-12T04:15:03.184Z,4.85
2017-09-12T04:16:10.942Z,7.32
2017-09-12T04:17:19.838Z,8.43
2017-09-12T04:18:26.980Z,6.60
2017-09-12T04:19:34.756Z,4.90
2017-09-12T04:20:42.527Z,5.57
2017-09-12T04:21:49.861Z,6.45
2017-09-12T04:24:35.038Z,4.47
2017-09-12T04:25:44.047Z,3.53
2017-09-12T04:26:54.156Z,5.75
2017-09-12T04:28:03.265Z,5.40
2017-09-12T04:29:12.927Z,5.37
2017-09-12T04:34:22.162Z,7.60
2017-09-12T04:35:32.279Z,5.72
2017-09-12T04:36:51.015Z,4.10
2017-09-12T04:38:12.899Z,6.18
2017-09-12T04:39:23.013Z,6.10
2017-09-12T04:40:32.265Z,6.00
2017-09-12T04:41:44.295Z,3.95
2017-09-12T04:42:54.336Z,7.65
2017-09-12T04:44:05.355Z,4.70
2017-09-12T04:45:15.143Z,6.87
2017-09-12T04:47:09.841Z,7.78
2017-09-12T04:48:18.360Z,3.87
2017-09-12T04:49:28.373Z,7.47
2017-09-12T04:50:41.395Z,4.97
2017-09-12T04:51:56.662Z,4.55
2017-09-12T04:53:25.400Z,5.07
2017-09-12T04:54:32.702Z,6.50
2017-09-12T04:55:43.955Z,4.85
2017-09-12T04:56:53.440Z,4.87
2017-09-12T04:58:06.509Z,6.57
2017-09-12T04:59:18.317Z,7.12
2017-09-12T05:00:29.457Z,4.45
2017-09-12T05:01:38.963Z,6.85
2017-09-12T05:02:52.497Z,5.60
2017-09-12T05:05:42.796Z,5.55
2017-09-12T05:07:23.655Z,6.22
2017-09-12T05:08:45.664Z,4.90
2017-09-12T05:10:28.724Z,5.37
2017-09-12T05:11:52.005Z,6.62
2017-09-12T05:12:59.478Z,5.47
2017-09-12T05:14:21.808Z,5.05
2017-09-12T05:15:44.762Z,5.28
2017-09-12T05:17:17.087Z,4.25
2017-09-12T05:18:29.237Z,6.45
2017-09-12T05:23:19.097Z,6.55
2017-09-12T05:24:30.165Z,7.57
2017-09-12T05:25:43.007Z,7.72
2017-09-12T05:27:25.004Z,9.38
2017-09-12T05:28:34.098Z,9.68
2017-09-12T05:29:43.869Z,10.15
2017-09-12T05:30:53.090Z,7.40
2017-09-12T05:32:03.133Z,8.35
2017-09-12T05:33:49.420Z,5.20
2017-09-12T05:35:03.310Z,5.28
2017-09-12T05:36:13.074Z,3.45
2017-09-12T05:37:23.173Z,5.22
2017-09-12T05:38:34.098Z,6.20
2017-09-12T05:40:32.179Z,7.20
2017-09-12T05:41:55.249Z,11.48
2017-09-12T05:45:19.498Z,5.18
2017-09-12T05:46:52.181Z,5.60
2017-09-12T05:48:02.126Z,6.22
2017-09-12T05:49:12.239Z,7.20
2017-09-12T05:50:25.179Z,4.68
2017-09-12T05:51:35.104Z,5.87
2017-09-12T05:52:47.003Z,9.32
2017-09-12T05:54:11.864Z,4.15
2017-09-12T05:55:21.234Z,6.72
2017-09-12T05:56:33.151Z,4.40
2017-09-12T05:58:08.265Z,8.98
2017-09-12T05:59:30.910Z,5.60
2017-09-12T06:00:44.314Z,8.73
2017-09-12T06:02:07.701Z,7.37
2017-09-12T06:03:16.173Z,6.80
2017-09-12T06:04:38.827Z,6.15
2017-09-12T06:10:54.679Z,9.25
2017-09-12T06:12:03.275Z,8.18
2017-09-12T06:13:32.262Z,5.28
2017-09-12T06:14:40.749Z,6.45
2017-09-12T06:15:53.286Z,4.90
2017-09-12T06:17:03.260Z,13.38
2017-09-12T06:18:22.795Z,4.43
2017-09-12T06:19:38.329Z,5.12
2017-09-12T06:20:53.323Z,8.25
2017-09-12T06:22:41.990Z,5.53
2017-09-12T06:24:17.034Z,7.72
2017-09-12T06:25:31.263Z,14.23
2017-09-12T06:26:58.164Z,8.05
2017-09-12T06:28:09.905Z,9.10
2017-09-12T06:29:27.836Z,8.23
2017-09-12T06:30:38.134Z,4.55
2017-09-12T06:31:59.871Z,6.93
2017-09-12T06:33:45.690Z,6.47
2017-09-12T06:35:37.323Z,5.87
2017-09-12T06:36:46.039Z,4.62
2017-09-12T06:38:34.721Z,6.95
2017-09-12T06:41:32.943Z,3.12
2017-09-12T06:43:00.286Z,7.78
2017-09-12T06:44:08.698Z,6.00
2017-09-12T06:45:17.927Z,6.75
2017-09-12T06:46:28.978Z,5.70
2017-09-12T06:48:01.784Z,9.13
2017-09-12T06:51:42.053Z,4.65
2017-09-12T06:53:16.614Z,10.98
2017-09-12T06:54:27.182Z,9.93
2017-09-12T06:55:38.077Z,7.40
2017-09-12T06:56:58.011Z,6.15
2017-09-12T06:58:04.891Z,9.35
2017-09-12T06:59:15.100Z,6.25
2017-09-12T07:00:47.817Z,6.28
2017-09-12T07:01:55.600Z,6.85
2017-09-12T07:03:04.902Z,10.00
2017-09-12T07:04:13.915Z,4.97
2017-09-12T07:07:14.900Z,9.45
2017-09-12T07:08:25.222Z,7.35
2017-09-12T07:09:35.599Z,8.15
2017-09-12T07:11:09.368Z,3.90
2017-09-12T07:12:38.721Z,8.23
2017-09-12T07:13:47.952Z,8.43
2017-09-12T07:14:58.913Z,5.70
2017-09-12T07:16:10.922Z,6.35
2017-09-12T07:17:22.933Z,6.68
2017-09-12T07:20:18.100Z,4.93
2017-09-12T07:21:27.920Z,5.15
2017-09-12T07:22:37.911Z,4.78
2017-09-12T07:23:47.895Z,6.90
2017-09-12T07:24:57.931Z,7.68
2017-09-12T07:26:11.543Z,6.15
2017-09-12T07:27:20.789Z,9.18
2017-09-12T07:28:32.975Z,4.37
2017-09-12T07:29:45.141Z,6.95
2017-09-12T07:30:56.143Z,8.32
2017-09-12T07:32:08.258Z,9.82
2017-09-12T07:33:18.305Z,3.12
2017-09-12T07:34:31.033Z,7.50
2017-09-12T07:35:46.089Z,3.90
2017-09-12T07:36:56.816Z,5.22
2017-09-12T07:38:06.882Z,3.42
2017-09-12T07:39:16.764Z,5.40
2017-09-12T07:40:30.306Z,4.97
2017-09-12T07:41:42.787Z,7.65
2017-09-12T07:44:42.658Z,8.10
2017-09-12T07:45:54.900Z,6.60
2017-09-12T07:47:04.340Z,6.00
2017-09-12T07:48:42.631Z,6.87
2017-09-12T07:50:17.481Z,4.62
2017-09-12T07:51:31.687Z,6.10
2017-09-12T07:58:36.634Z,6.45
2017-09-12T08:00:02.459Z,8.35
2017-09-12T08:01:19.119Z,3.95
2017-09-12T08:04:01.484Z,4.45
2017-09-12T08:05:32.786Z,5.60
2017-09-12T08:08:43.716Z,4.45
2017-09-12T08:09:53.562Z,7.07
2017-09-12T08:11:03.782Z,5.37
2017-09-12T08:12:29.852Z,5.57
2017-09-12T08:13:40.945Z,3.35
2017-09-12T08:14:52.876Z,7.15
2017-09-12T08:16:02.815Z,5.28
2017-09-12T08:17:13.697Z,6.78
2017-09-12T08:18:25.035Z,4.30
2017-09-12T08:19:34.687Z,3.28
2017-09-12T08:20:43.855Z,5.47
2017-09-12T08:21:55.694Z,8.52
2017-09-12T08:23:06.910Z,4.03
2017-09-12T08:24:17.887Z,5.60
2017-09-12T08:25:28.831Z,3.65
2017-09-12T08:26:38.885Z,6.03
2017-09-12T08:27:48.721Z,2.60
2017-09-12T08:29:00.092Z,6.87
2017-09-12T08:30:09.834Z,4.87
2017-09-12T08:31:19.831Z,4.85
2017-09-12T08:32:44.528Z,6.80
2017-09-12T08:33:54.382Z,4.45
2017-09-12T08:35:09.740Z,4.25
2017-09-12T08:36:20.673Z,7.15
2017-09-12T08:37:36.975Z,6.72
2017-09-12T08:38:45.721Z,3.12
2017-09-12T08:40:11.489Z,4.57
2017-09-12T08:41:22.702Z,4.55
2017-09-12T08:42:33.765Z,5.05
2017-09-12T08:43:49.291Z,9.32
2017-09-12T08:45:37.698Z,8.35
2017-09-12T08:46:45.804Z,4.20
2017-09-12T08:47:55.656Z,3.85
2017-09-12T08:49:17.605Z,4.82
2017-09-12T08:50:26.844Z,3.78
2017-09-12T08:51:37.946Z,4.00
2017-09-12T08:52:48.864Z,3.85
2017-09-12T08:54:21.517Z,4.72
2017-09-12T08:59:24.997Z,5.12
2017-09-12T09:00:39.323Z,5.10
2017-09-12T09:01:48.627Z,5.62
2017-09-12T09:02:59.694Z,8.30
2017-09-12T09:05:53.748Z,4.90
2017-09-12T09:09:31.573Z,6.10
2017-09-12T09:14:13.626Z,4.65
2017-09-12T09:15:27.950Z,5.05
2017-09-12T09:16:41.684Z,4.40
2017-09-12T09:18:23.679Z,2.30
2017-09-12T09:24:02.400Z,1.92
2017-09-12T09:25:43.584Z,2.55
2017-09-12T09:28:25.478Z,5.30
2017-09-12T09:31:32.357Z,3.12
2017-09-12T09:32:41.379Z,2.35
2017-09-12T09:34:10.395Z,2.37
2017-09-12T09:38:42.352Z,6.15
2017-09-12T09:39:51.543Z,4.20
2017-09-12T09:41:06.701Z,4.65
2017-09-12T09:44:00.257Z,7.05
2017-09-12T09:45:08.688Z,3.65
2017-09-12T09:46:31.339Z,4.07
2017-09-12T09:47:44.670Z,5.95
2017-09-12T09:48:58.986Z,5.62
2017-09-12T09:50:24.515Z,3.87
2017-09-12T09:51:49.724Z,2.67
2017-09-12T09:53:05.723Z,3.47
2017-09-12T09:54:32.856Z,1.90
2017-09-12T09:55:42.617Z,3.92
2017-09-12T09:56:56.634Z,3.75
2017-09-12T09:58:15.581Z,3.87
2017-09-12T10:01:11.515Z,5.05
2017-09-12T10:02:23.761Z,5.03
2017-09-12T10:03:36.659Z,3.20
2017-09-12T10:04:48.874Z,4.03
2017-09-12T10:06:05.464Z,6.00
2017-09-12T10:07:18.674Z,4.75
2017-09-12T10:08:36.328Z,4.90
2017-09-12T10:09:46.901Z,6.55
2017-09-12T10:11:12.972Z,3.62
2017-09-12T10:16:26.732Z,4.12
2017-09-12T10:27:28.630Z,4.30
2017-09-12T10:30:47.484Z,2.67
2017-09-12T10:31:57.390Z,5.20
2017-09-12T10:33:06.570Z,4.05
2017-09-12T10:34:19.226Z,1.67
2017-09-12T10:35:28.350Z,3.67
2017-09-12T10:36:37.699Z,3.37
2017-09-12T10:37:47.432Z,4.15
2017-09-12T10:38:59.436Z,4.55
2017-09-12T10:40:17.650Z,4.32
2017-09-12T10:41:28.544Z,4.05
2017-09-12T10:42:38.388Z,2.25
2017-09-12T10:43:47.529Z,2.67
2017-09-12T10:45:01.569Z,2.50
2017-09-12T10:46:12.356Z,2.67
2017-09-12T10:47:22.436Z,5.18
2017-09-12T10:48:33.263Z,3.42
2017-09-12T10:49:42.296Z,2.83
2017-09-12T10:50:51.438Z,2.50
2017-09-12T10:52:01.536Z,3.65
2017-09-12T10:53:14.354Z,3.72
2017-09-12T10:54:26.408Z,2.80
2017-09-12T10:55:37.205Z,4.12
2017-09-12T10:56:46.378Z,2.35
2017-09-12T10:57:55.703Z,2.75
2017-09-12T10:59:05.371Z,2.47
2017-09-12T11:00:15.611Z,3.75
2017-09-12T11:01:25.286Z,2.20
2017-09-12T11:02:35.435Z,6.50
2017-09-12T11:03:46.355Z,1.90
2017-09-12T11:04:57.467Z,2.87
2017-09-12T11:06:06.395Z,5.15
2017-09-12T11:07:16.426Z,2.78
2017-09-12T11:08:26.570Z,2.85
2017-09-12T11:09:35.554Z,4.25
2017-09-12T11:10:46.607Z,2.08
2017-09-12T11:11:56.354Z,2.53
2017-09-12T11:13:06.300Z,4.78
2017-09-12T11:14:16.414Z,4.20
2017-09-12T11:15:26.294Z,4.55
2017-09-12T11:16:36.224Z,3.33
2017-09-12T11:17:46.282Z,2.60
2017-09-12T11:18:55.309Z,3.72
2017-09-12T11:20:05.235Z,4.55
2017-09-12T11:21:15.051Z,3.15
2017-09-12T11:22:24.252Z,4.75
2017-09-12T11:23:34.396Z,3.72
2017-09-12T11:24:44.466Z,6.20
2017-09-12T11:25:53.358Z,1.77
2017-09-12T11:27:02.695Z,3.40
2017-09-12T11:28:12.278Z,2.35
2017-09-12T11:29:21.092Z,2.35
2017-09-12T11:30:31.239Z,3.17
2017-09-12T11:31:40.845Z,6.60
2017-09-12T11:32:49.378Z,2.95
2017-09-12T11:34:00.245Z,2.65
2017-09-12T11:35:10.421Z,4.28
2017-09-12T11:36:20.530Z,6.65
2017-09-12T11:37:30.268Z,2.55
2017-09-12T11:38:40.265Z,2.60
2017-09-12T11:39:49.166Z,2.60
2017-09-12T11:40:58.237Z,2.40
2017-09-12T11:42:09.210Z,2.05
2017-09-12T11:43:18.241Z,2.92
2017-09-12T11:44:27.863Z,5.03
2017-09-12T11:45:37.158Z,2.53
2017-09-12T11:46:45.568Z,2.40
2017-09-12T11:47:55.210Z,2.72
2017-09-12T11:49:04.277Z,4.30
2017-09-12T11:50:14.282Z,2.08
2017-09-12T11:51:24.202Z,1.58
2017-09-12T11:52:34.274Z,2.80
2017-09-12T11:53:44.304Z,3.08
2017-09-12T11:54:55.246Z,2.47
2017-09-12T11:56:05.357Z,2.08
2017-09-12T11:57:16.239Z,2.47
2017-09-12T11:58:25.370Z,3.25
2017-09-12T11:59:36.371Z,2.35
2017-09-12T12:01:17.357Z,4.12
2017-09-12T12:02:27.227Z,4.60
2017-09-12T12:03:37.246Z,2.12
2017-09-12T12:04:48.176Z,1.73
2017-09-12T12:05:58.071Z,5.18
2017-09-12T12:07:07.176Z,4.03
2017-09-12T12:08:17.339Z,2.37
2017-09-12T12:09:26.332Z,1.85
2017-09-12T12:10:35.318Z,8.82
2017-09-12T12:11:44.168Z,1.92
2017-09-12T12:12:53.445Z,2.78
2017-09-12T12:14:03.176Z,2.05
2017-09-12T12:15:12.327Z,3.70
2017-09-12T12:16:23.821Z,2.90
2017-09-12T12:17:33.198Z,3.05
2017-09-12T12:18:43.299Z,1.85
2017-09-12T12:19:53.275Z,1.37
2017-09-12T12:21:03.407Z,1.05
2017-09-12T12:22:13.179Z,1.90
2017-09-12T12:23:21.089Z,3.70
2017-09-12T12:24:31.172Z,2.30
2017-09-12T12:25:43.553Z,4.05
2017-09-12T12:27:10.352Z,1.48
2017-09-12T12:28:25.391Z,2.30
2017-09-12T12:29:35.454Z,2.08
2017-09-12T12:30:46.283Z,3.08
2017-09-12T12:32:12.476Z,4.85
2017-09-12T12:33:48.144Z,2.85
2017-09-12T12:35:06.388Z,3.47
2017-09-12T12:38:12.209Z,2.12
2017-09-12T12:39:33.549Z,1.50
2017-09-12T12:44:50.950Z,2.05
2017-09-12T12:46:09.691Z,1.73
2017-09-12T12:48:14.009Z,1.77
2017-09-12T12:49:54.040Z,4.32
2017-09-12T12:51:05.469Z,2.37
2017-09-12T12:52:19.307Z,4.22
2017-09-12T12:53:29.109Z,1.73
2017-09-12T12:54:42.308Z,2.78
2017-09-12T12:55:52.383Z,3.25
2017-09-12T12:57:04.131Z,2.40
2017-09-12T12:58:14.189Z,1.92
2017-09-12T12:59:22.483Z,3.08
2017-09-12T13:00:31.151Z,1.10
2017-09-12T13:01:41.258Z,2.58
2017-09-12T13:02:52.124Z,1.60
2017-09-12T13:04:02.116Z,2.37
2017-09-12T13:05:11.104Z,3.95
2017-09-12T13:06:20.236Z,2.53
2017-09-12T13:07:29.071Z,1.10
2017-09-12T13:08:37.636Z,4.35
2017-09-12T13:09:45.935Z,2.78
2017-09-12T13:10:55.078Z,1.50
2017-09-12T13:12:04.051Z,2.87
2017-09-12T13:13:13.032Z,1.52
2017-09-12T13:14:23.950Z,2.55
2017-09-12T13:15:33.043Z,3.75
2017-09-12T13:16:43.659Z,1.75
2017-09-12T13:17:52.136Z,1.40
2017-09-12T13:19:02.029Z,1.80
2017-09-12T13:20:13.005Z,1.55
2017-09-12T13:21:23.177Z,1.98
2017-09-12T13:22:34.461Z,2.80
2017-09-12T13:23:43.005Z,2.33
2017-09-12T13:24:52.243Z,3.33
2017-09-12T13:26:01.007Z,2.08
2017-09-12T13:27:10.893Z,0.98
2017-09-12T13:28:20.120Z,2.85
2017-09-12T13:29:29.413Z,2.62
2017-09-12T13:30:37.153Z,2.35
2017-09-12T13:31:47.075Z,3.35
2017-09-12T13:32:55.335Z,1.92
2017-09-12T13:34:04.054Z,3.03
2017-09-12T13:35:14.063Z,2.50
2017-09-12T13:36:23.943Z,5.22
2017-09-12T13:37:34.246Z,2.60
2017-09-12T13:38:42.008Z,2.30
2017-09-12T13:39:50.988Z,3.25
2017-09-12T13:41:03.083Z,2.20
2017-09-12T13:42:14.134Z,2.17
2017-09-12T13:43:24.071Z,1.92
2017-09-12T13:44:32.885Z,1.80
2017-09-12T13:45:44.048Z,4.75
2017-09-12T13:46:54.014Z,2.55
2017-09-12T13:48:03.586Z,2.05
2017-09-12T13:49:13.248Z,2.55
2017-09-12T13:50:22.065Z,1.52
2017-09-12T13:51:30.975Z,2.65
2017-09-12T13:52:40.963Z,2.25
2017-09-12T13:53:48.980Z,2.45
2017-09-12T13:54:58.944Z,3.08
2017-09-12T13:56:08.023Z,3.15
2017-09-12T13:57:16.952Z,3.35
2017-09-12T13:58:28.004Z,2.70
2017-09-12T13:59:38.075Z,1.35
2017-09-12T14:00:48.016Z,1.25
2017-09-12T14:02:00.102Z,1.85
2017-09-12T14:03:09.022Z,2.10
2017-09-12T14:04:18.026Z,1.83
2017-09-12T14:05:29.012Z,3.25
2017-09-12T14:06:38.296Z,3.67
2017-09-12T14:07:46.988Z,2.85
2017-09-12T14:08:56.960Z,2.47
2017-09-12T14:10:06.112Z,2.20
2017-09-12T14:11:15.128Z,1.58
2017-09-12T14:12:25.859Z,3.20
2017-09-12T14:13:34.612Z,1.70
2017-09-12T14:14:43.358Z,1.55
2017-09-12T14:15:52.759Z,2.22
2017-09-12T14:17:02.047Z,2.65
2017-09-12T14:18:11.991Z,3.83
2017-09-12T14:19:25.069Z,1.30
2017-09-12T14:20:36.066Z,1.75
2017-09-12T14:21:46.139Z,2.60
2017-09-12T14:22:57.069Z,2.72
2017-09-12T14:24:08.261Z,3.22
2017-09-12T14:25:17.867Z,1.87
2017-09-12T14:26:27.894Z,3.72
2017-09-12T14:27:38.066Z,3.20
2017-09-12T14:28:46.877Z,3.83
2017-09-12T14:29:56.913Z,2.80
2017-09-12T14:31:07.032Z,3.03
2017-09-12T14:32:15.840Z,3.67
2017-09-12T14:33:25.834Z,3.03
2017-09-12T14:34:34.852Z,1.70
2017-09-12T14:35:47.131Z,2.40
2017-09-12T14:36:56.830Z,4.57
2017-09-12T14:38:07.915Z,3.40
2017-09-12T14:39:16.761Z,2.80
2017-09-12T14:40:25.899Z,2.97
2017-09-12T14:41:35.894Z,2.70
2017-09-12T14:42:46.910Z,4.15
2017-09-12T14:43:56.366Z,2.05
2017-09-12T14:45:05.754Z,1.75
2017-09-12T14:46:13.937Z,2.75
2017-09-12T14:47:22.595Z,1.58
2017-09-12T14:48:34.517Z,3.95
2017-09-12T14:49:47.089Z,2.90
2017-09-12T14:50:59.746Z,3.25
2017-09-12T14:52:10.836Z,2.65
2017-09-12T14:53:22.807Z,2.17
2017-09-12T14:54:39.895Z,3.85
2017-09-12T14:55:53.737Z,2.67
2017-09-12T14:57:05.103Z,3.97
2017-09-12T14:58:18.646Z,3.28
2017-09-12T14:59:31.946Z,2.87
2017-09-12T15:00:43.225Z,2.33
2017-09-12T15:01:54.279Z,2.37
2017-09-12T15:03:05.736Z,1.70
2017-09-12T15:04:19.218Z,2.85
2017-09-12T15:05:31.891Z,2.25
2017-09-12T15:06:42.763Z,1.65
2017-09-12T15:07:55.936Z,2.05
2017-09-12T15:09:05.999Z,1.95
2017-09-12T15:10:16.830Z,1.95
2017-09-12T15:11:27.823Z,1.62
2017-09-12T15:12:40.195Z,1.80
2017-09-12T15:13:52.955Z,1.80
2017-09-12T15:15:03.831Z,2.35
2017-09-12T15:16:17.692Z,1.50
2017-09-12T15:17:31.573Z,3.72
2017-09-12T15:18:42.847Z,3.08
2017-09-12T15:19:54.162Z,3.58
2017-09-12T15:21:06.867Z,1.80
2017-09-12T15:22:18.016Z,1.90
2017-09-12T15:23:31.019Z,2.42
2017-09-12T15:24:45.138Z,2.20
2017-09-12T15:27:51.050Z,3.15
2017-09-12T15:29:25.913Z,2.42
2017-09-12T15:30:35.798Z,2.40
2017-09-12T15:32:02.058Z,2.55
2017-09-12T15:33:14.716Z,2.08
2017-09-12T15:34:30.960Z,2.20
2017-09-12T15:35:55.806Z,2.42
2017-09-12T15:37:08.108Z,2.30
2017-09-12T15:38:23.049Z,2.17
2017-09-12T15:39:36.069Z,2.83
2017-09-12T15:40:47.733Z,2.30
2017-09-12T15:41:59.959Z,2.55
2017-09-12T15:43:13.002Z,2.20
2017-09-12T15:46:20.734Z,2.28
2017-09-12T15:47:31.682Z,2.17
2017-09-12T15:48:43.854Z,2.58
2017-09-12T15:49:55.763Z,2.83
2017-09-12T15:51:10.788Z,3.10
2017-09-12T15:52:23.790Z,2.75
2017-09-12T15:53:34.860Z,1.85
2017-09-12T15:54:45.749Z,4.32
2017-09-12T15:55:55.083Z,6.43
2017-09-12T15:57:07.832Z,2.97
2017-09-12T15:58:22.926Z,2.35
2017-09-12T15:59:35.725Z,2.80
2017-09-12T16:00:48.978Z,3.15
2017-09-12T16:01:59.701Z,2.90
2017-09-12T16:03:11.503Z,4.03
2017-09-12T16:04:21.766Z,3.30
2017-09-12T16:05:31.820Z,3.45
2017-09-12T16:06:41.703Z,3.05
2017-09-12T16:07:52.715Z,2.50
2017-09-12T16:09:03.685Z,2.90
2017-09-12T16:10:14.904Z,3.28
2017-09-12T16:11:24.717Z,2.67
2017-09-12T16:12:45.367Z,3.53
2017-09-12T16:14:04.723Z,2.83
2017-09-12T16:15:16.884Z,2.50
2017-09-12T16:16:32.759Z,4.72
2017-09-12T16:17:47.638Z,4.97
2017-09-12T16:18:58.872Z,3.00
2017-09-12T16:20:08.814Z,2.65
2017-09-12T16:21:22.716Z,3.12
2017-09-12T16:22:33.675Z,2.62
2017-09-12T16:23:45.965Z,1.95
2017-09-12T16:24:57.951Z,2.17
2017-09-12T16:26:11.872Z,2.37
2017-09-12T16:27:23.866Z,2.50
2017-09-12T16:28:35.789Z,2.03
2017-09-12T16:29:48.577Z,3.92
2017-09-12T16:31:02.766Z,4.22
2017-09-12T16:32:13.955Z,2.33
2017-09-12T16:33:25.697Z,1.95
2017-09-12T16:34:35.951Z,2.67
2017-09-12T16:35:44.728Z,1.87
2017-09-12T16:36:54.656Z,2.42
2017-09-12T16:38:03.539Z,2.15
2017-09-12T16:39:13.641Z,4.18
2017-09-12T16:40:22.604Z,3.10
2017-09-12T16:41:32.560Z,2.10
2017-09-12T16:42:45.222Z,3.75
2017-09-12T16:44:07.368Z,4.87
2017-09-12T16:45:19.738Z,1.80
2017-09-12T16:46:28.695Z,2.37
2017-09-12T16:47:40.538Z,3.00
2017-09-12T16:48:50.629Z,5.15
2017-09-12T16:50:19.004Z,2.83
2017-09-12T16:51:28.663Z,1.85
2017-09-12T16:52:54.617Z,2.33
2017-09-12T16:54:07.611Z,2.22
2017-09-12T16:57:01.429Z,3.05
2017-09-12T16:58:23.914Z,2.85
2017-09-12T16:59:36.469Z,2.78
2017-09-12T17:00:48.470Z,1.92
2017-09-12T17:02:26.723Z,4.03
2017-09-12T17:04:11.519Z,2.60
2017-09-12T17:05:22.683Z,1.77
2017-09-12T17:06:36.624Z,1.85
2017-09-12T17:07:46.992Z,2.72
2017-09-12T17:08:57.644Z,1.92
2017-09-12T17:10:07.816Z,2.22
2017-09-12T17:11:19.666Z,1.95
2017-09-12T17:12:28.499Z,2.55
2017-09-12T17:13:37.375Z,3.62
2017-09-12T17:14:46.597Z,1.87
2017-09-12T17:15:56.534Z,3.87
2017-09-12T17:17:05.452Z,2.67
2017-09-12T17:18:15.638Z,1.60
2017-09-12T17:19:24.554Z,1.90
2017-09-12T17:20:31.519Z,2.45
2017-09-12T17:21:42.486Z,1.45
2017-09-12T17:22:52.408Z,2.47
2017-09-12T17:24:02.511Z,1.73
2017-09-12T17:25:12.527Z,2.70